Culver, Indiana
Current Conditions -  °F | °C
As of 1:35 PM on Monday 22 Dec 2014 (Local Time) from KOXI Reporting Station
Broken Clouds Broken Clouds  
Wind Chill: 30°   Ceiling: 3700
Heat Index: 37°   Visibility: 5mi
Dew Point: 30°   Wind: 12mph
Humidity: 74%   Direction: 130°SE
Pressure: 29.82"   Gusts: NA
Location:  41.22°N, 86.42°W
Report Text: KOXI 221835Z AUTO 13010KT 5SM BKN037 BKN043 BKN055 03/M01 A2982 RMK AO1 T00301013
Loading
Personal Weather Stations






























Interactive Weather Map New forecast layout! Learn more

10-Day Weather Forecast

Advertisements
Track Severe Weather on mobile